Time;durP1;ratioP1;P1;durP2;ratioP2;P2;SDS_P1;SDS_P2;PMS_P1;PMS_P2;Temp;Humidity;BMP_temperature;BMP_pressure;BME280_temperature;BME280_humidity;BME280_pressure;Samples;Min_cycle;Max_cycle;Signal;HPM_P1;HPM_P2
2023/06/22 00:02:18;;;;;;;17.90;16.00;;;564.10;2432.00;;;;;;5033552;28;20469;-75
2023/06/22 00:04:44;;;;;;;18.15;16.20;;;563.80;2432.00;;;;;;5032257;28;20036;-78
2023/06/22 00:07:10;;;;;;;20.00;15.35;;;563.80;2432.00;;;;;;5031525;28;20409;-77
2023/06/22 00:09:36;;;;;;;17.08;15.45;;;563.80;2432.00;;;;;;5032153;28;20029;-79
2023/06/22 00:12:02;;;;;;;17.02;15.32;;;563.80;2432.00;;;;;;5032191;28;20061;-78
2023/06/22 00:14:28;;;;;;;19.60;17.48;;;563.80;2432.00;;;;;;5031887;28;20029;-77
2023/06/22 00:16:58;;;;;;;17.67;15.98;;;563.80;2432.00;;;;;;5032188;28;20450;-77
2023/06/22 00:19:24;;;;;;;17.70;15.93;;;563.70;2432.00;;;;;;5032261;28;20040;-76
2023/06/22 00:21:54;;;;;;;17.45;15.75;;;563.70;2432.00;;;;;;5031821;28;20030;-77
2023/06/22 00:24:20;;;;;;;16.50;14.77;;;563.70;2432.00;;;;;;5033115;28;20499;-77
2023/06/22 00:26:50;;;;;;;17.40;14.55;;;563.70;2432.00;;;;;;5031796;28;20060;-79
2023/06/22 00:29:16;;;;;;;16.48;14.82;;;563.60;2432.00;;;;;;5031926;28;20029;-79
2023/06/22 00:31:42;;;;;;;16.25;14.65;;;563.70;2432.00;;;;;;5032130;28;20082;-77
2023/06/22 00:34:08;;;;;;;16.70;14.98;;;563.70;2432.00;;;;;;5031715;28;20541;-79
2023/06/22 00:36:35;;;;;;;16.55;14.98;;;563.70;2432.00;;;;;;5032017;28;20359;-78
2023/06/22 00:39:01;;;;;;;16.58;14.98;;;563.70;2432.00;;;;;;5031879;28;20390;-77
2023/06/22 00:41:30;;;;;;;17.65;15.93;;;563.60;2432.00;;;;;;5035330;28;20036;-78
2023/06/22 00:43:56;;;;;;;16.48;14.75;;;563.50;2432.00;;;;;;5035727;28;20029;-78
2023/06/22 00:46:23;;;;;;;17.50;15.70;;;563.40;2432.00;;;;;;5035579;28;20030;-79
2023/06/22 00:48:50;;;;;;;17.92;14.70;;;563.50;2432.00;;;;;;5035507;28;20040;-80
2023/06/22 00:51:16;;;;;;;17.02;15.20;;;563.40;2432.00;;;;;;5036823;28;20025;-77
2023/06/22 00:53:43;;;;;;;16.40;14.70;;;563.40;2432.00;;;;;;5036993;28;20101;-77
2023/06/22 00:56:11;;;;;;;16.48;14.75;;;563.40;2432.00;;;;;;5035110;28;20026;-78
2023/06/22 00:58:37;;;;;;;16.40;14.60;;;563.30;2432.00;;;;;;5044993;28;20056;-77
2023/06/22 01:01:03;;;;;;;20.38;15.85;;;563.20;2432.00;;;;;;5035282;28;20536;-78
2023/06/22 01:03:29;;;;;;;18.00;16.13;;;538.50;2406.40;;;;;;5035108;28;20044;-80
2023/06/22 01:05:59;;;;;;;19.10;17.20;;;;;;;;;;5035004;28;20057;-79
2023/06/22 01:08:37;;;;;;;20.40;16.08;;;538.00;2406.40;;;;;;5036454;28;20052;-78
2023/06/22 01:11:16;;;;;;;20.08;17.83;;;538.30;2406.40;;;;;;5034867;28;20128;-78
2023/06/22 01:14:25;;;;;;;18.42;16.67;;;538.20;2406.40;;;;;;5035301;28;20462;-79
2023/06/22 01:16:55;;;;;;;18.20;16.17;;;538.40;2406.40;;;;;;5033281;28;20066;-79
2023/06/22 01:19:35;;;;;;;18.10;16.40;;;538.40;2406.40;;;;;;5033889;28;20448;-76
2023/06/22 01:22:03;;;;;;;18.17;16.25;;;538.50;2406.40;;;;;;5033599;28;20025;-79
2023/06/22 01:25:06;;;;;;;18.70;17.00;;;538.40;2406.40;;;;;;5016898;28;20056;-80
2023/06/22 01:27:46;;;;;;;19.70;17.58;;;538.50;2406.40;;;;;;5033861;28;20549;-79
2023/06/22 01:30:15;;;;;;;19.38;17.38;;;538.50;2406.40;;;;;;5038166;28;20520;-82
2023/06/22 01:32:42;;;;;;;18.33;16.58;;;538.50;2406.40;;;;;;5033692;28;20040;-78
2023/06/22 01:35:10;;;;;;;17.83;16.13;;;538.40;2406.40;;;;;;5033616;28;20021;-78
2023/06/22 01:37:38;;;;;;;18.33;16.48;;;538.30;2406.40;;;;;;5033040;28;20038;-78
2023/06/22 01:40:08;;;;;;;18.17;16.27;;;538.40;2406.40;;;;;;5033433;28;20029;-78
2023/06/22 01:42:35;;;;;;;18.52;16.60;;;538.40;2406.40;;;;;;5033495;28;20032;-80
2023/06/22 01:45:02;;;;;;;17.77;15.90;;;538.10;2406.40;;;;;;5033018;28;20034;-79
2023/06/22 01:47:28;;;;;;;17.98;15.40;;;538.00;2406.40;;;;;;5033230;28;20026;-78
2023/06/22 01:49:54;;;;;;;17.02;15.30;;;537.80;2406.40;;;;;;5035953;28;20116;-78
2023/06/22 01:52:21;;;;;;;18.20;15.73;;;537.80;2406.40;;;;;;5053065;28;20381;-79
2023/06/22 01:54:48;;;;;;;17.13;15.43;;;537.90;2406.40;;;;;;5054263;28;20055;-79
2023/06/22 01:57:13;;;;;;;17.67;14.85;;;537.80;2406.40;;;;;;5054220;28;20030;-78
2023/06/22 02:00:04;;;;;;;17.73;15.95;;;538.00;2406.40;;;;;;5053999;28;20086;-77
2023/06/22 02:03:01;;;;;;;18.88;16.52;;;538.10;2406.40;;;;;;5053385;28;20059;-78
2023/06/22 02:05:33;;;;;;;19.63;17.48;;;538.00;2406.40;;;;;;5050371;28;20037;-79
2023/06/22 02:08:18;;;;;;;18.15;16.02;;;538.10;2406.40;;;;;;5054216;28;20025;-82
2023/06/22 02:10:46;;;;;;;19.33;16.58;;;538.20;2406.40;;;;;;5071756;28;20021;-76
2023/06/22 02:13:14;;;;;;;19.27;17.23;;;538.10;2406.40;;;;;;5067288;28;20194;-77
2023/06/22 02:15:40;;;;;;;20.33;16.77;;;538.20;2406.40;;;;;;5053811;28;20124;-79
2023/06/22 02:18:06;;;;;;;18.48;16.70;;;538.30;2406.40;;;;;;5053807;28;20435;-77
2023/06/22 02:20:32;;;;;;;19.58;17.10;;;538.40;2406.40;;;;;;5053297;28;20039;-78
2023/06/22 02:22:58;;;;;;;20.23;18.27;;;538.40;2406.40;;;;;;5053747;28;20025;-78
2023/06/22 02:25:24;;;;;;;18.48;16.63;;;538.40;2406.40;;;;;;5053629;28;20386;-79
2023/06/22 02:27:49;;;;;;;19.08;17.27;;;538.40;2406.40;;;;;;5053314;28;20056;-77
2023/06/22 02:30:15;;;;;;;19.77;17.38;;;538.40;2406.40;;;;;;5053351;28;20033;-78
2023/06/22 02:32:42;;;;;;;18.88;16.90;;;538.50;2406.40;;;;;;5053195;28;20082;-77
2023/06/22 02:35:11;;;;;;;18.90;17.10;;;538.40;2406.40;;;;;;5053464;28;20384;-78
2023/06/22 02:37:41;;;;;;;23.02;17.30;;;538.40;2406.40;;;;;;5053393;28;20382;-79
2023/06/22 02:40:11;;;;;;;17.75;16.13;;;538.20;2406.40;;;;;;5052997;28;20029;-79
2023/06/22 02:42:37;;;;;;;18.92;17.02;;;538.10;2406.40;;;;;;5053361;28;20025;-78
2023/06/22 02:45:04;;;;;;;19.50;17.70;;;538.20;2406.40;;;;;;5053212;28;20036;-80
2023/06/22 02:47:30;;;;;;;19.70;17.70;;;563.20;2432.00;;;;;;5052916;28;20124;-77
2023/06/22 02:49:55;;;;;;;19.85;17.73;;;538.10;2406.40;;;;;;5053080;28;20032;-79
2023/06/22 02:52:21;;;;;;;19.95;17.98;;;538.20;2406.40;;;;;;5053201;28;20083;-77
2023/06/22 02:54:47;;;;;;;19.65;17.75;;;538.10;2406.40;;;;;;5052213;28;20427;-79
2023/06/22 02:57:13;;;;;;;20.58;17.67;;;538.20;2406.40;;;;;;5052997;28;20060;-79
2023/06/22 02:59:42;;;;;;;19.63;17.63;;;538.10;2406.40;;;;;;5054232;28;20029;-79
2023/06/22 03:02:09;;;;;;;20.25;17.50;;;538.00;2406.40;;;;;;5052625;28;20048;-79
2023/06/22 03:04:35;;;;;;;19.40;16.70;;;537.80;2406.40;;;;;;5054223;28;20060;-79
2023/06/22 03:07:02;;;;;;;20.05;17.60;;;538.00;2406.40;;;;;;5052670;28;20052;-80
2023/06/22 03:09:28;;;;;;;18.52;16.67;;;537.80;2406.40;;;;;;5052650;28;20115;-80
2023/06/22 03:11:54;;;;;;;19.73;17.55;;;538.00;2406.40;;;;;;5052839;28;20035;-78
2023/06/22 03:14:20;;;;;;;18.50;16.70;;;538.00;2406.40;;;;;;5053933;28;20025;-79
2023/06/22 03:16:46;;;;;;;19.67;17.17;;;538.00;2406.40;;;;;;5052513;28;20094;-78
2023/06/22 03:19:13;;;;;;;17.95;16.15;;;538.00;2406.40;;;;;;5052721;28;20029;-78
2023/06/22 03:21:39;;;;;;;18.10;16.30;;;537.90;2406.40;;;;;;5052086;28;20025;-78
2023/06/22 03:24:06;;;;;;;18.65;16.75;;;538.00;2406.40;;;;;;5052180;28;20025;-80
2023/06/22 03:26:32;;;;;;;17.90;16.10;;;537.90;2406.40;;;;;;5052646;28;20106;-78
2023/06/22 03:28:57;;;;;;;18.98;17.02;;;537.90;2406.40;;;;;;5052353;28;20036;-79
2023/06/22 03:31:23;;;;;;;17.95;16.15;;;537.90;2406.40;;;;;;5052575;28;20083;-79
2023/06/22 03:33:50;;;;;;;18.48;16.52;;;538.00;2406.40;;;;;;5053916;28;20067;-78
2023/06/22 03:36:19;;;;;;;24.52;16.55;;;537.90;2406.40;;;;;;5052251;28;20112;-80
2023/06/22 03:38:46;;;;;;;18.25;16.33;;;537.90;2406.40;;;;;;5053830;28;20056;-80
2023/06/22 03:41:12;;;;;;;18.40;16.67;;;537.90;2406.40;;;;;;5052536;28;20025;-79
2023/06/22 03:43:38;;;;;;;22.90;18.40;;;537.90;2406.40;;;;;;5052180;28;20377;-79
2023/06/22 03:46:03;;;;;;;19.13;17.02;;;538.00;2406.40;;;;;;5052372;28;20029;-78
2023/06/22 03:48:29;;;;;;;20.02;18.08;;;538.00;2406.40;;;;;;5052473;28;20036;-81
2023/06/22 03:50:55;;;;;;;20.52;17.15;;;538.00;2406.40;;;;;;5052985;28;20025;-79
2023/06/22 03:53:21;;;;;;;20.55;18.33;;;538.00;2406.40;;;;;;5052088;28;20532;-80
2023/06/22 03:55:51;;;;;;;20.52;18.50;;;537.90;2406.40;;;;;;5052364;28;20029;-78
2023/06/22 03:58:18;;;;;;;22.17;18.48;;;537.60;2406.40;;;;;;5052011;28;20158;-78
2023/06/22 04:00:49;;;;;;;21.95;18.92;;;512.90;2380.80;;;;;;5052338;28;20042;-79
2023/06/22 04:03:15;;;;;;;21.00;18.80;;;512.90;2380.80;;;;;;5053498;28;20139;-78
2023/06/22 04:05:41;;;;;;;23.45;18.58;;;512.20;2380.80;;;;;;5053157;28;20049;-77
2023/06/22 04:08:07;;;;;;;26.38;19.38;;;512.70;2380.80;;;;;;5052275;28;20029;-79
2023/06/22 04:10:34;;;;;;;20.70;18.50;;;512.90;2380.80;;;;;;5051978;28;20043;-78
2023/06/22 04:13:00;;;;;;;21.83;18.65;;;512.90;2380.80;;;;;;5051967;28;20037;-79
2023/06/22 04:15:26;;;;;;;20.42;18.27;;;537.60;2406.40;;;;;;5054290;28;20029;-78
2023/06/22 04:17:51;;;;;;;20.58;17.95;;;537.90;2406.40;;;;;;5055892;28;20017;-80
2023/06/22 04:20:17;;;;;;;20.10;18.05;;;537.90;2406.40;;;;;;5056279;28;20032;-79
2023/06/22 04:22:43;;;;;;;21.35;17.95;;;538.10;2406.40;;;;;;5055788;28;20032;-80
2023/06/22 04:25:09;;;;;;;19.92;17.48;;;538.20;2406.40;;;;;;5055749;28;20116;-80
2023/06/22 04:27:39;;;;;;;20.88;17.80;;;538.40;2406.40;;;;;;5057565;28;20040;-78
2023/06/22 04:30:07;;;;;;;21.08;18.77;;;538.50;2406.40;;;;;;5055904;28;20029;-79
2023/06/22 04:32:36;;;;;;;19.77;17.52;;;538.50;2406.40;;;;;;5055593;28;20119;-80
2023/06/22 04:35:06;;;;;;;21.42;16.75;;;538.50;2406.40;;;;;;5055783;28;20028;-79
2023/06/22 04:37:32;;;;;;;19.50;17.23;;;563.20;2432.00;;;;;;5055782;28;20025;-80
2023/06/22 04:39:58;;;;;;;19.45;16.42;;;538.50;2406.40;;;;;;5055527;28;20025;-80
2023/06/22 04:42:27;;;;;;;19.02;16.63;;;538.30;2406.40;;;;;;5055693;28;20087;-81
2023/06/22 04:44:53;;;;;;;18.88;16.95;;;538.40;2406.40;;;;;;5073835;28;20044;-79
2023/06/22 04:47:19;;;;;;;23.08;18.08;;;538.40;2406.40;;;;;;5079358;28;20012;-79
2023/06/22 04:49:45;;;;;;;21.88;19.27;;;538.40;2406.40;;;;;;5079915;28;20036;-80
2023/06/22 04:52:12;;;;;;;21.80;18.23;;;538.30;2406.40;;;;;;5080364;28;20009;-81
2023/06/22 04:54:47;;;;;;;20.02;18.02;;;538.20;2406.40;;;;;;5081003;28;20051;-78
2023/06/22 04:57:13;;;;;;;20.50;18.35;;;538.30;2406.40;;;;;;5080688;28;20044;-78
2023/06/22 04:59:41;;;;;;;19.77;17.52;;;538.30;2406.40;;;;;;5063599;28;20211;-79
2023/06/22 05:02:08;;;;;;;21.42;17.83;;;538.40;2406.40;;;;;;5054879;28;20108;-79
2023/06/22 05:04:35;;;;;;;20.60;17.20;;;538.50;2406.40;;;;;;5055453;28;20036;-79
2023/06/22 05:07:02;;;;;;;21.77;18.10;;;538.50;2406.40;;;;;;5054663;28;20049;-80
2023/06/22 05:09:29;;;;;;;20.05;17.20;;;563.30;2432.00;;;;;;5055160;28;20040;-78
2023/06/22 05:11:56;;;;;;;19.77;17.67;;;563.40;2432.00;;;;;;5079829;28;20013;-81
2023/06/22 05:14:22;;;;;;;19.70;17.70;;;563.50;2432.00;;;;;;5058865;28;20033;-78
2023/06/22 05:16:49;;;;;;;21.85;18.40;;;563.60;2432.00;;;;;;5055506;28;20112;-79
2023/06/22 05:19:15;;;;;;;22.70;18.40;;;563.60;2432.00;;;;;;5055143;28;20083;-81
2023/06/22 05:21:41;;;;;;;22.65;17.73;;;563.60;2432.00;;;;;;5054705;28;20090;-78
2023/06/22 05:24:07;;;;;;;24.63;17.67;;;563.60;2432.00;;;;;;5054843;28;20465;-78
2023/06/22 05:26:34;;;;;;;23.55;18.60;;;563.60;2432.00;;;;;;5054775;28;20155;-78
2023/06/22 05:29:02;;;;;;;19.63;17.67;;;563.60;2432.00;;;;;;5054568;28;20044;-79
2023/06/22 05:31:28;;;;;;;21.65;17.15;;;563.60;2432.00;;;;;;5056228;28;20368;-80
2023/06/22 05:33:55;;;;;;;23.65;16.33;;;563.70;2432.00;;;;;;5054795;28;20078;-81
2023/06/22 05:36:24;;;;;;;20.65;18.52;;;563.90;2432.00;;;;;;5055518;28;20021;-78
2023/06/22 05:38:51;;;;;;;21.15;17.52;;;564.00;2432.00;;;;;;5055754;28;20431;-80
2023/06/22 05:41:17;;;;;;;19.80;17.70;;;564.00;2432.00;;;;;;5055479;28;20389;-80
2023/06/22 05:43:42;;;;;;;25.75;18.00;;;564.00;2432.00;;;;;;5054151;28;20021;-81
2023/06/22 05:46:08;;;;;;;21.50;18.10;;;563.90;2432.00;;;;;;5054415;28;20167;-79
2023/06/22 05:48:34;;;;;;;22.50;16.92;;;564.00;2432.00;;;;;;5054268;28;20029;-78
2023/06/22 05:51:00;;;;;;;18.83;16.85;;;588.80;2432.00;;;;;;5054155;28;20112;-79
2023/06/22 05:53:26;;;;;;;18.52;16.50;;;588.90;2432.00;;;;;;5054182;28;20102;-79
2023/06/22 05:55:51;;;;;;;17.92;15.93;;;589.10;2432.00;;;;;;5055309;28;20127;-80
2023/06/22 05:58:17;;;;;;;18.13;16.35;;;589.30;2432.00;;;;;;5054243;28;20029;-83
2023/06/22 06:00:43;;;;;;;18.35;16.42;;;589.40;2432.00;;;;;;5055476;28;20536;-82
2023/06/22 06:03:10;;;;;;;17.33;15.57;;;589.50;2432.00;;;;;;5054019;28;20025;-81
2023/06/22 06:05:37;;;;;;;18.42;16.60;;;589.50;2432.00;;;;;;5054049;28;20041;-81
2023/06/22 06:08:05;;;;;;;17.85;16.20;;;589.40;2432.00;;;;;;5054092;28;20091;-82
2023/06/22 06:10:32;;;;;;;17.83;16.08;;;589.50;2432.00;;;;;;5053668;28;20044;-82
2023/06/22 06:12:58;;;;;;;17.98;15.80;;;589.70;2432.00;;;;;;5054031;28;20424;-81
2023/06/22 06:15:24;;;;;;;18.73;16.15;;;614.40;2432.00;;;;;;5053901;28;20032;-81
2023/06/22 06:17:52;;;;;;;17.80;16.00;;;614.40;2432.00;;;;;;5054319;28;20430;-81
2023/06/22 06:20:22;;;;;;;18.65;16.70;;;614.50;2432.00;;;;;;5053774;28;20029;-83
2023/06/22 06:22:48;;;;;;;19.38;17.17;;;614.70;2432.00;;;;;;5054024;28;20047;-84
2023/06/22 06:25:18;;;;;;;18.02;16.13;;;614.80;2432.00;;;;;;5053702;28;20025;-84
2023/06/22 06:27:45;;;;;;;18.30;16.35;;;614.80;2432.00;;;;;;5053852;28;20353;-83
2023/06/22 06:30:12;;;;;;;18.17;16.40;;;615.00;2432.00;;;;;;5046037;28;20052;-82
2023/06/22 06:32:38;;;;;;;17.45;15.75;;;614.80;2432.00;;;;;;5035067;28;20079;-85
2023/06/22 06:35:06;;;;;;;19.77;17.67;;;614.80;2432.00;;;;;;5032970;28;20416;-82
2023/06/22 06:37:32;;;;;;;18.45;16.65;;;614.80;2432.00;;;;;;5034241;28;20025;-82
2023/06/22 06:39:57;;;;;;;19.38;17.58;;;614.80;2432.00;;;;;;5033703;28;20033;-82
2023/06/22 06:42:24;;;;;;;18.17;16.38;;;614.90;2432.00;;;;;;5033639;28;20025;-84
2023/06/22 06:44:50;;;;;;;18.23;15.60;;;614.90;2432.00;;;;;;5034601;28;20044;-82
2023/06/22 06:47:16;;;;;;;18.00;16.23;;;615.00;2432.00;;;;;;5033355;28;20025;-83
2023/06/22 06:49:42;;;;;;;17.10;15.35;;;615.20;2432.00;;;;;;5033159;28;20037;-82
2023/06/22 06:52:08;;;;;;;19.35;15.63;;;615.30;2432.00;;;;;;5033170;28;20036;-83
2023/06/22 06:54:34;;;;;;;21.55;15.82;;;640.10;2432.00;;;;;;5033342;28;20026;-80
2023/06/22 06:57:00;;;;;;;17.88;15.88;;;640.30;2432.00;;;;;;5033063;28;20362;-83
2023/06/22 06:59:26;;;;;;;18.02;16.23;;;640.30;2432.00;;;;;;5033918;28;20072;-80
2023/06/22 07:01:51;;;;;;;17.95;16.10;;;640.00;2432.00;;;;;;5033054;28;20052;-83
2023/06/22 07:04:17;;;;;;;17.98;15.75;;;615.30;2432.00;;;;;;5034297;28;20028;-79
2023/06/22 07:06:43;;;;;;;17.85;15.85;;;640.00;2432.00;;;;;;5032504;28;20542;-81
2023/06/22 07:09:09;;;;;;;18.40;16.60;;;615.30;2432.00;;;;;;5032811;28;20120;-82
2023/06/22 07:11:36;;;;;;;18.08;16.30;;;640.00;2432.00;;;;;;5032690;28;20025;-79
2023/06/22 07:14:02;;;;;;;19.35;16.38;;;640.20;2432.00;;;;;;5034010;28;20513;-79
2023/06/22 07:16:28;;;;;;;17.60;15.93;;;640.40;2432.00;;;;;;5032681;28;20124;-81
2023/06/22 07:18:54;;;;;;;17.70;16.08;;;640.30;2432.00;;;;;;5032721;28;20028;-80
2023/06/22 07:21:20;;;;;;;19.30;16.42;;;640.50;2432.00;;;;;;5032348;28;20025;-80
2023/06/22 07:23:46;;;;;;;18.27;16.35;;;640.70;2432.00;;;;;;5033615;28;20026;-79
2023/06/22 07:26:12;;;;;;;17.60;15.82;;;640.70;2432.00;;;;;;5032778;28;20121;-80
2023/06/22 07:28:40;;;;;;;16.98;15.30;;;665.60;2432.00;;;;;;5033230;28;20025;-80
2023/06/22 07:31:06;;;;;;;16.58;14.88;;;640.80;2432.00;;;;;;5032516;28;20052;-80
2023/06/22 07:33:32;;;;;;;19.02;15.63;;;666.00;2432.00;;;;;;5032523;28;20068;-80
2023/06/22 07:35:58;;;;;;;16.88;14.48;;;;;;;;;;5032492;28;20117;-81
2023/06/22 07:38:24;;;;;;;16.10;14.63;;;666.40;2432.00;;;;;;5032563;28;20032;-82
2023/06/22 07:40:50;;;;;;;16.85;14.98;;;666.10;2432.00;;;;;;5032375;28;20037;-80
2023/06/22 07:43:16;;;;;;;17.60;14.90;;;666.00;2432.00;;;;;;5043137;28;20473;-81
2023/06/22 07:45:52;;;;;;;21.23;16.25;;;666.20;2432.00;;;;;;5052381;28;20025;-82
2023/06/22 07:48:22;;;;;;;16.77;15.18;;;666.50;2432.00;;;;;;5053500;28;20031;-77
2023/06/22 07:50:48;;;;;;;18.50;14.88;;;691.30;2432.00;;;;;;5052476;28;20385;-77
2023/06/22 07:53:14;;;;;;;18.58;14.20;;;691.60;2432.00;;;;;;5051801;28;20384;-78
2023/06/22 07:55:40;;;;;;;18.20;14.02;;;691.50;2432.00;;;;;;5049025;28;20083;-79
2023/06/22 07:58:06;;;;;;;19.10;16.42;;;691.60;2432.00;;;;;;5043224;28;20417;-81
2023/06/22 08:00:33;;;;;;;23.23;20.80;;;691.50;2432.00;;;;;;5033081;28;20025;-78
2023/06/22 08:02:59;;;;;;;25.77;23.13;;;691.70;2432.00;;;;;;5031972;28;20542;-78
2023/06/22 08:05:25;;;;;;;33.00;29.95;;;691.90;2432.00;;;;;;5031842;28;20116;-78
2023/06/22 08:07:51;;;;;;;18.25;15.65;;;716.80;2432.00;;;;;;5049263;28;20025;-78
2023/06/22 08:10:17;;;;;;;19.42;15.48;;;716.90;2432.00;;;;;;5054869;28;20036;-80
2023/06/22 08:12:43;;;;;;;17.23;15.52;;;716.90;2432.00;;;;;;5077083;28;20082;-79
2023/06/22 08:15:09;;;;;;;34.45;30.92;;;716.80;2432.00;;;;;;5051969;28;20028;-76
2023/06/22 08:17:37;;;;;;;19.85;17.95;;;717.10;2432.00;;;;;;5051410;28;20075;-76
2023/06/22 08:20:09;;;;;;;14.70;13.35;;;717.10;2432.00;;;;;;5050374;28;20119;-77
2023/06/22 08:22:36;;;;;;;17.73;15.48;;;717.20;2432.00;;;;;;5051310;28;20035;-77
2023/06/22 08:25:03;;;;;;;19.70;15.32;;;717.40;2432.00;;;;;;5052908;28;20461;-79
2023/06/22 08:27:31;;;;;;;18.13;16.15;;;717.70;2432.00;;;;;;5051635;28;20029;-78
2023/06/22 08:29:58;;;;;;;14.85;13.55;;;742.40;2432.00;;;;;;5051779;28;20449;-79
2023/06/22 08:32:26;;;;;;;19.85;17.80;;;742.60;2432.00;;;;;;5051979;28;20029;-79
2023/06/22 08:34:54;;;;;;;19.52;15.10;;;743.00;2432.00;;;;;;5051029;28;20040;-80
2023/06/22 08:37:20;;;;;;;18.55;16.00;;;742.90;2432.00;;;;;;5051418;28;20036;-79
2023/06/22 08:39:46;;;;;;;17.48;13.43;;;743.00;2432.00;;;;;;5051791;28;20031;-80
2023/06/22 08:42:12;;;;;;;14.27;12.82;;;743.10;2432.00;;;;;;5051816;28;20029;-81
2023/06/22 08:44:38;;;;;;;15.55;14.05;;;743.10;2432.00;;;;;;5053002;28;20472;-79
2023/06/22 08:47:04;;;;;;;15.77;12.82;;;743.20;2432.00;;;;;;5052708;28;20028;-80
2023/06/22 08:49:30;;;;;;;15.25;13.75;;;743.30;2432.00;;;;;;5052848;28;20481;-80
2023/06/22 08:51:56;;;;;;;14.82;13.25;;;768.00;2432.00;;;;;;5052941;28;20032;-81
2023/06/22 08:54:22;;;;;;;17.27;15.15;;;743.10;2432.00;;;;;;5053086;28;20025;-79
2023/06/22 08:56:48;;;;;;;15.05;13.15;;;743.10;2432.00;;;;;;5051584;28;20021;-79
2023/06/22 08:59:14;;;;;;;19.10;17.10;;;743.30;2432.00;;;;;;5050373;28;20116;-81
2023/06/22 09:01:40;;;;;;;13.57;11.93;;;768.10;2432.00;;;;;;5053548;28;20381;-80
2023/06/22 09:04:07;;;;;;;12.73;11.52;;;768.10;2432.00;;;;;;5055946;28;20028;-80
2023/06/22 09:06:33;;;;;;;16.77;13.70;;;768.40;2432.00;;;;;;5053952;28;20064;-80
2023/06/22 09:08:59;;;;;;;14.57;13.05;;;768.60;2432.00;;;;;;5054648;28;20097;-79
2023/06/22 09:11:25;;;;;;;14.55;13.07;;;768.80;2432.00;;;;;;5054679;28;20032;-81
2023/06/22 09:13:52;;;;;;;12.68;11.38;;;793.60;2432.00;;;;;;5054391;28;20029;-78
2023/06/22 09:16:18;;;;;;;14.25;12.70;;;793.80;2432.00;;;;;;5054388;28;20028;-80
2023/06/22 09:18:47;;;;;;;16.55;13.82;;;793.80;2432.00;;;;;;5055903;28;20104;-79
2023/06/22 09:21:13;;;;;;;12.05;10.75;;;794.00;2432.00;;;;;;5054702;28;20035;-80
2023/06/22 09:23:39;;;;;;;14.40;12.55;;;794.00;2406.40;;;;;;5054424;28;20108;-80
2023/06/22 09:26:05;;;;;;;13.75;12.27;;;794.20;2432.00;;;;;;5054175;28;20029;-80
2023/06/22 09:28:33;;;;;;;13.73;12.30;;;794.40;2432.00;;;;;;5054622;28;20475;-81
2023/06/22 09:30:59;;;;;;;12.25;11.05;;;794.50;2380.80;;;;;;5055318;28;20029;-80
2023/06/22 09:33:26;;;;;;;13.38;12.07;;;819.20;2355.20;;;;;;5054182;28;20496;-81
2023/06/22 09:35:52;;;;;;;17.35;11.80;;;819.40;2380.80;;;;;;5054440;28;20141;-80
2023/06/22 09:38:18;;;;;;;13.63;12.43;;;819.30;2355.20;;;;;;5054456;28;20108;-79
2023/06/22 09:40:43;;;;;;;11.50;9.93;;;819.30;2355.20;;;;;;5054028;28;20469;-81
2023/06/22 09:43:09;;;;;;;13.52;11.35;;;794.50;2329.60;;;;;;5055482;28;20025;-81
2023/06/22 09:45:35;;;;;;;14.45;10.88;;;819.30;2329.60;;;;;;5054383;28;20033;-81
2023/06/22 09:48:01;;;;;;;11.20;10.10;;;819.40;2278.40;;;;;;5053733;28;20035;-80
2023/06/22 09:50:26;;;;;;;11.23;10.15;;;819.40;2278.40;;;;;;5055795;28;20043;-81
2023/06/22 09:52:54;;;;;;;13.82;12.18;;;819.70;2278.40;;;;;;5054213;28;20024;-80
2023/06/22 09:55:23;;;;;;;15.63;13.95;;;819.90;2278.40;;;;;;5053977;28;20025;-80
2023/06/22 09:57:49;;;;;;;11.52;10.32;;;844.80;2252.80;;;;;;5055761;28;20052;-83
2023/06/22 10:00:18;;;;;;;13.23;11.93;;;844.80;2201.60;;;;;;5053988;28;20029;-82
2023/06/22 10:02:44;;;;;;;13.73;12.43;;;844.90;2201.60;;;;;;5037564;28;20388;-78
2023/06/22 10:05:10;;;;;;;15.60;10.73;;;845.10;2176.00;;;;;;5053693;28;20415;-78
2023/06/22 10:07:42;;;;;;;12.55;11.27;;;845.30;2176.00;;;;;;5054513;28;20128;-79
2023/06/22 10:10:08;;;;;;;10.45;9.18;;;845.40;2150.40;;;;;;5053893;28;20037;-76
2023/06/22 10:12:34;;;;;;;10.32;9.32;;;845.40;2124.80;;;;;;5052848;28;20048;-79
2023/06/22 10:15:00;;;;;;;13.25;11.18;;;845.40;2099.20;;;;;;5053369;28;20464;-80
2023/06/22 10:17:26;;;;;;;10.55;9.40;;;845.50;2124.80;;;;;;5053605;28;20115;-79
2023/06/22 10:19:51;;;;;;;12.93;9.95;;;845.30;2124.80;;;;;;5053710;28;20036;-78
2023/06/22 10:22:17;;;;;;;11.00;8.52;;;845.70;2124.80;;;;;;5053610;28;20025;-79
2023/06/22 10:24:44;;;;;;;10.48;7.60;;;870.40;2048.00;;;;;;5055111;28;20492;-79
2023/06/22 10:27:11;;;;;;;9.68;8.55;;;870.40;2022.40;;;;;;5054517;28;20021;-78
2023/06/22 10:29:37;;;;;;;11.43;7.97;;;845.70;2048.00;;;;;;5048534;28;20053;-76
2023/06/22 10:32:04;;;;;;;8.90;7.90;;;845.60;2022.40;;;;;;5034522;28;20071;-76
2023/06/22 10:34:29;;;;;;;10.48;8.23;;;870.40;1996.80;;;;;;5033488;28;20373;-78
2023/06/22 10:36:55;;;;;;;10.50;8.13;;;870.60;1996.80;;;;;;5033128;28;20078;-78
2023/06/22 10:39:21;;;;;;;9.55;8.50;;;870.90;1971.20;;;;;;5033402;28;20452;-79
2023/06/22 10:41:47;;;;;;;9.50;7.57;;;871.00;1920.00;;;;;;5049804;28;20478;-79
2023/06/22 10:44:13;;;;;;;10.35;8.00;;;870.90;1894.40;;;;;;5032864;28;20056;-81
2023/06/22 10:46:39;;;;;;;8.90;7.97;;;870.90;1920.00;;;;;;5033204;28;20116;-78
2023/06/22 10:49:05;;;;;;;8.65;7.13;;;871.10;1920.00;;;;;;5034034;28;20041;-78
2023/06/22 10:51:32;;;;;;;8.43;7.45;;;871.20;1894.40;;;;;;5032826;28;20063;-81
2023/06/22 10:53:57;;;;;;;10.65;7.63;;;871.30;1868.80;;;;;;5033106;28;20021;-78
2023/06/22 10:56:23;;;;;;;8.75;7.55;;;871.30;1843.20;;;;;;5033106;28;20053;-78
2023/06/22 10:58:50;;;;;;;8.10;7.30;;;896.10;1843.20;;;;;;5032753;28;20026;-79
2023/06/22 11:01:15;;;;;;;8.90;7.70;;;896.20;1843.20;;;;;;5033031;28;20057;-77
2023/06/22 11:03:41;;;;;;;10.80;7.85;;;871.30;1817.60;;;;;;5034009;28;20032;-78
2023/06/22 11:06:07;;;;;;;12.60;7.65;;;871.10;1843.20;;;;;;5034390;28;20045;-77
2023/06/22 11:08:32;;;;;;;8.73;7.55;;;871.30;1843.20;;;;;;5056088;28;20009;-77
2023/06/22 11:10:58;;;;;;;10.93;7.60;;;871.20;1843.20;;;;;;5037583;28;20168;-77
2023/06/22 11:13:25;;;;;;;9.88;8.07;;;870.70;1868.80;;;;;;5033014;28;20053;-77
2023/06/22 11:15:50;;;;;;;10.93;8.40;;;871.00;1894.40;;;;;;5032774;28;20040;-76
2023/06/22 11:18:16;;;;;;;8.90;8.00;;;871.10;1868.80;;;;;;5033669;28;20025;-78
2023/06/22 11:20:42;;;;;;;10.43;7.60;;;871.10;1868.80;;;;;;5032677;28;20117;-76
2023/06/22 11:23:08;;;;;;;9.55;8.63;;;870.80;1868.80;;;;;;5032573;28;20079;-77
2023/06/22 11:25:38;;;;;;;12.98;9.15;;;871.30;1894.40;;;;;;5032272;28;20029;-79
2023/06/22 11:28:04;;;;;;;8.95;8.15;;;896.30;1894.40;;;;;;5032368;28;20040;-78
2023/06/22 11:30:30;;;;;;;8.55;7.65;;;896.90;1894.40;;;;;;5033989;28;20034;-78
2023/06/22 11:32:59;;;;;;;10.32;8.13;;;896.90;1868.80;;;;;;5032890;28;20026;-77
2023/06/22 11:35:26;;;;;;;9.57;8.57;;;921.70;1894.40;;;;;;5034449;28;20076;-78
2023/06/22 11:37:51;;;;;;;9.02;8.07;;;921.80;1894.40;;;;;;5034475;28;20021;-82
2023/06/22 11:40:17;;;;;;;10.25;8.15;;;922.00;1894.40;;;;;;5032358;28;20117;-79
2023/06/22 11:42:44;;;;;;;8.32;7.43;;;922.00;1868.80;;;;;;5032500;28;20432;-80
2023/06/22 11:45:10;;;;;;;13.13;7.55;;;922.00;1843.20;;;;;;5045295;28;20020;-79
2023/06/22 11:47:36;;;;;;;9.98;8.40;;;922.10;1817.60;;;;;;5052787;28;20073;-81
2023/06/22 11:50:03;;;;;;;9.10;8.23;;;922.30;1843.20;;;;;;5054076;28;20029;-79
2023/06/22 11:52:28;;;;;;;9.05;8.25;;;922.10;1843.20;;;;;;5053963;28;20536;-81
2023/06/22 11:54:54;;;;;;;12.98;9.70;;;922.20;1843.20;;;;;;5053157;28;20122;-79
2023/06/22 11:57:20;;;;;;;10.10;7.70;;;922.40;1843.20;;;;;;5053822;28;20027;-83
2023/06/22 11:59:46;;;;;;;11.98;8.38;;;922.40;1792.00;;;;;;5051201;28;20060;-79
2023/06/22 12:02:11;;;;;;;9.93;7.80;;;922.40;1817.60;;;;;;5052304;28;20025;-79